Time;durP1;ratioP1;P1;durP2;ratioP2;P2;SDS_P1;SDS_P2;PMS_P1;PMS_P2;Temp;Humidity;BMP_temperature;BMP_pressure;BME280_temperature;BME280_humidity;BME280_pressure;Samples;Min_cycle;Max_cycle;Signal;HPM_P1;HPM_P2
2022/10/15 00:00:34;;;;;;;;;0.67;0.67;;;;;14.75;79.01;100398.06;5063054;28;45718;-72
2022/10/15 00:02:59;;;;;;;;;2.33;1.00;;;;;14.68;79.22;100383.06;5076894;27;45474;-72
2022/10/15 00:05:25;;;;;;;;;1.00;1.00;;;;;14.83;79.85;100412.16;5063193;27;45326;-72
2022/10/15 00:07:51;;;;;;;;;1.67;1.67;;;;;14.59;79.74;100390.88;5058017;28;46384;-72
2022/10/15 00:10:17;;;;;;;;;1.33;1.33;;;;;14.56;79.49;100382.91;5093205;27;45460;-72
2022/10/15 00:12:42;;;;;;;;;2.00;1.00;;;;;14.63;79.88;100396.19;5067631;27;45349;-72
2022/10/15 00:15:09;;;;;;;;;1.00;1.00;;;;;14.74;79.56;100401.53;5057197;28;45516;-72
2022/10/15 00:17:35;;;;;;;;;2.00;2.00;;;;;14.58;79.62;100387.34;5065206;28;46408;-72
2022/10/15 00:20:04;;;;;;;;;1.00;1.00;;;;;14.62;79.86;100398.78;5076336;28;45581;-72
2022/10/15 00:22:30;;;;;;;;;1.00;1.00;;;;;14.47;80.31;100378.44;5066992;28;45627;-72
2022/10/15 00:24:55;;;;;;;;;1.00;1.00;;;;;14.55;80.12;100382.03;5055707;28;45641;-72
2022/10/15 00:27:21;;;;;;;;;2.33;2.00;;;;;14.59;80.21;100383.88;5062688;28;47818;-72
2022/10/15 00:29:47;;;;;;;;;1.00;1.00;;;;;14.48;80.56;100362.69;5077343;28;45325;-72
2022/10/15 00:32:13;;;;;;;;;1.67;1.00;;;;;14.60;80.66;100376.84;5077711;28;45275;-72
2022/10/15 00:34:39;;;;;;;;;0.67;0.67;;;;;14.53;80.59;100368.88;5057732;28;45310;-72
2022/10/15 00:37:04;;;;;;;;;2.00;1.00;;;;;14.53;80.23;100360.13;5056724;28;45992;-72
2022/10/15 00:39:30;;;;;;;;;1.00;1.00;;;;;14.55;79.76;100352.25;5066162;28;45414;-72
2022/10/15 00:41:55;;;;;;;;;1.00;0.00;;;;;14.55;79.51;100345.25;5077235;28;45435;-72
2022/10/15 00:44:21;;;;;;;;;1.00;1.00;;;;;14.60;79.43;100358.44;5075897;28;45416;-72
2022/10/15 00:47:31;;;;;;;;;2.00;2.00;;;;;14.56;80.10;100351.38;5056915;28;45605;-72
2022/10/15 00:50:19;;;;;;;;;1.00;1.00;;;;;14.58;79.89;100349.66;5050092;28;45489;-72
2022/10/15 00:53:02;;;;;;;;;1.00;1.00;;;;;14.57;79.60;100347.91;5071831;27;45467;-72
2022/10/15 00:55:31;;;;;;;;;1.67;1.67;;;;;14.41;79.42;100329.31;5057040;28;45266;-72
2022/10/15 00:58:02;;;;;;;;;2.00;1.00;;;;;14.47;79.83;100342.53;5056374;28;46283;-72
2022/10/15 01:00:28;;;;;;;;;0.33;0.33;;;;;14.36;79.68;100323.13;5063710;28;45532;-72
2022/10/15 01:02:53;;;;;;;;;1.00;1.00;;;;;14.37;79.93;100318.75;5070313;28;45605;-72
2022/10/15 01:05:20;;;;;;;;;1.00;1.00;;;;;14.31;79.77;100309.06;5070251;28;45373;-72
2022/10/15 01:07:46;;;;;;;;;2.00;2.00;;;;;13.93;79.92;100230.72;5055922;28;45472;-72
2022/10/15 01:10:13;;;;;;;;;1.00;1.00;;;;;14.35;79.77;100296.84;5065790;28;45602;-72
2022/10/15 01:13:03;;;;;;;;;1.00;1.00;;;;;14.42;79.76;100306.53;5056322;28;45400;-72
2022/10/15 01:15:54;;;;;;;;;1.00;1.00;;;;;14.34;79.79;100288.06;5062678;28;45568;-72
2022/10/15 01:18:30;;;;;;;;;1.00;1.00;;;;;14.43;80.06;100297.81;5080280;28;45412;-72
2022/10/15 01:21:00;;;;;;;;;1.67;1.33;;;;;14.42;80.02;100291.63;5078514;28;45379;-72
2022/10/15 01:23:53;;;;;;;;;1.00;1.00;;;;;14.41;79.60;100279.38;5064392;28;45542;-72
2022/10/15 01:26:21;;;;;;;;;2.67;1.67;;;;;14.39;79.56;100290.75;5065025;28;45262;-72
2022/10/15 01:29:05;;;;;;;;;1.00;1.00;;;;;14.34;79.67;100277.53;5069187;28;46504;-72
2022/10/15 01:31:47;;;;;;;;;1.00;1.00;;;;;14.27;79.94;100273.13;5066729;28;45528;-72
2022/10/15 01:34:22;;;;;;;;;2.33;2.33;;;;;14.28;80.58;100274.84;5072311;28;45293;-72
2022/10/15 01:37:13;;;;;;;;;4.00;2.33;;;;;14.23;81.01;100282.69;5068790;28;47059;-72
2022/10/15 01:39:43;;;;;;;;;3.00;2.00;;;;;14.20;80.79;100272.16;5068081;27;46222;-72
2022/10/15 01:42:22;;;;;;;;;3.00;3.00;;;;;14.24;80.76;100259.94;5073452;28;45405;-72
2022/10/15 01:44:52;;;;;;;;;0.67;0.67;;;;;14.10;80.30;100229.13;5074891;27;45491;-72
2022/10/15 01:47:31;;;;;;;;;1.00;1.00;;;;;14.21;81.18;100249.41;5059589;28;45777;-72
2022/10/15 01:49:59;;;;;;;;;2.00;2.00;;;;;14.20;81.25;100248.50;5073319;28;46253;-72
2022/10/15 01:52:30;;;;;;;;;2.00;1.67;;;;;14.24;79.81;100255.53;5061791;28;45373;-72
2022/10/15 01:54:58;;;;;;;;;2.00;2.00;;;;;14.13;79.90;100237.06;5071227;27;45428;-72
2022/10/15 01:57:28;;;;;;;;;1.33;1.33;;;;;14.13;80.07;100231.81;5059431;28;45520;-72
2022/10/15 01:59:54;;;;;;;;;1.00;1.00;;;;;13.63;80.67;100145.50;5058197;28;46312;-72
2022/10/15 02:02:19;;;;;;;;;2.00;2.00;;;;;14.09;81.13;100219.50;5058375;28;45560;-72
2022/10/15 02:04:45;;;;;;;;;2.00;2.00;;;;;14.08;80.90;100222.97;5065841;28;45304;-72
2022/10/15 02:07:17;;;;;;;;;1.67;1.67;;;;;13.99;80.08;100212.41;5060378;28;45496;-72
2022/10/15 02:09:55;;;;;;;;;2.00;1.00;;;;;14.04;80.56;100217.69;5069178;28;46178;-72
2022/10/15 02:12:42;;;;;;;;;2.00;2.00;;;;;14.07;80.59;100225.63;5066430;28;45213;-72
2022/10/15 02:15:24;;;;;;;;;1.67;1.00;;;;;13.77;80.20;100206.03;5059000;28;45500;-72
2022/10/15 02:18:11;;;;;;;;;1.00;1.00;;;;;13.61;80.79;100209.31;5062849;28;45539;-72
2022/10/15 02:20:45;;;;;;;;;1.00;1.00;;;;;13.69;81.40;100229.56;5059014;28;46147;-72
2022/10/15 02:23:21;;;;;;;;;2.00;2.00;;;;;13.68;81.93;100219.91;5061487;28;45345;-72
2022/10/15 02:25:49;;;;;;;;;2.00;2.00;;;;;13.62;81.55;100204.09;5078107;28;45367;-72
2022/10/15 02:28:17;;;;;;;;;1.67;1.00;;;;;13.67;81.23;100207.66;5079260;28;45311;-72
2022/10/15 02:30:46;;;;;;;;;1.00;1.00;;;;;13.73;81.14;100204.25;5061903;28;45331;-72
2022/10/15 02:33:13;;;;;;;;;1.00;1.00;;;;;13.63;81.10;100190.13;5091331;27;45447;-72
2022/10/15 02:35:42;;;;;;;;;1.33;1.00;;;;;13.69;80.91;100198.06;5058318;28;45561;-72
2022/10/15 02:38:11;;;;;;;;;1.33;1.33;;;;;13.54;80.84;100163.75;5059167;28;45501;-72
2022/10/15 02:40:40;;;;;;;;;1.00;1.00;;;;;13.72;81.30;100191.97;5060230;28;46795;-72
2022/10/15 02:43:08;;;;;;;;;1.00;1.00;;;;;13.76;80.80;100199.00;5057048;28;45335;-72
2022/10/15 02:45:35;;;;;;;;;1.00;1.00;;;;;13.72;80.96;100181.47;5064232;28;45573;-72
2022/10/15 02:48:00;;;;;;;;;2.67;1.67;;;;;13.63;80.46;100160.38;5064561;28;45597;-72
2022/10/15 02:50:26;;;;;;;;;1.00;1.00;;;;;13.62;80.99;100163.84;5057000;28;46713;-72
2022/10/15 02:52:52;;;;;;;;;2.00;2.00;;;;;13.68;81.29;100170.03;5061239;28;45538;-72
2022/10/15 02:55:17;;;;;;;;;1.00;1.00;;;;;13.58;82.11;100135.81;5079195;27;45400;-72
2022/10/15 02:57:43;;;;;;;;;3.00;1.00;;;;;13.64;82.87;100165.63;5079314;28;45498;-72
2022/10/15 03:00:09;;;;;;;;;2.00;2.00;;;;;13.62;83.04;100167.34;5063414;28;45426;-72
2022/10/15 03:02:35;;;;;;;;;1.00;1.00;;;;;13.59;83.01;100162.09;5058644;28;45493;-72
2022/10/15 03:05:00;;;;;;;;;0.33;0.33;;;;;13.56;82.17;100151.53;5058294;28;45530;-72
2022/10/15 03:07:26;;;;;;;;;3.00;3.00;;;;;13.58;82.06;100156.81;5058549;28;45410;-72
2022/10/15 03:09:51;;;;;;;;;2.00;2.00;;;;;13.55;81.65;100159.38;5058555;28;45587;-72
2022/10/15 03:12:19;;;;;;;;;2.00;2.00;;;;;13.45;81.67;100145.28;5057196;28;45273;-72
2022/10/15 03:14:45;;;;;;;;;2.67;1.67;;;;;13.38;82.01;100127.72;5072852;28;45454;-71
2022/10/15 03:17:10;;;;;;;;;2.67;2.00;;;;;13.42;81.85;100130.38;5057330;28;45399;-72
2022/10/15 03:19:36;;;;;;;;;1.00;1.00;;;;;13.46;81.75;100132.19;5057604;28;45398;-72
2022/10/15 03:22:01;;;;;;;;;1.67;1.00;;;;;13.39;81.25;100117.25;5056928;28;45481;-72
2022/10/15 03:24:27;;;;;;;;;1.33;1.00;;;;;13.42;80.67;100113.75;5057065;28;45394;-72
2022/10/15 03:26:52;;;;;;;;;2.00;2.00;;;;;13.38;80.85;100109.34;5074320;28;45401;-72
2022/10/15 03:29:18;;;;;;;;;2.00;1.33;;;;;13.38;80.80;100112.84;5072777;27;45489;-72
2022/10/15 03:31:43;;;;;;;;;3.00;2.67;;;;;12.99;81.15;100040.69;5057913;28;45306;-73
2022/10/15 03:34:09;;;;;;;;;2.00;1.67;;;;;13.43;81.45;100121.66;5056052;28;45501;-72
2022/10/15 03:36:34;;;;;;;;;2.00;2.00;;;;;13.40;81.52;100115.50;5058100;27;45578;-72
2022/10/15 03:39:00;;;;;;;;;1.67;1.33;;;;;13.23;81.70;100089.91;5055384;28;46622;-72
2022/10/15 03:41:25;;;;;;;;;1.67;1.67;;;;;13.36;82.11;100109.31;5068776;28;45405;-72
2022/10/15 03:43:51;;;;;;;;;1.67;1.00;;;;;13.38;82.06;100104.97;5078619;28;45479;-72
2022/10/15 03:46:16;;;;;;;;;2.00;1.00;;;;;13.40;81.95;100112.88;5075365;28;45341;-72
2022/10/15 03:48:42;;;;;;;;;1.00;1.00;;;;;13.43;81.22;100121.66;5057198;28;45555;-72
2022/10/15 03:51:07;;;;;;;;;1.00;1.00;;;;;13.44;81.12;100127.78;5067742;28;45425;-72
2022/10/15 03:53:33;;;;;;;;;1.67;1.00;;;;;13.34;81.16;100113.66;5063326;28;45393;-72
2022/10/15 03:56:05;;;;;;;;;0.00;0.00;;;;;13.26;80.98;100102.19;5056613;28;45461;-72
2022/10/15 03:58:31;;;;;;;;;1.00;1.00;;;;;13.25;80.83;100117.03;5062361;28;46226;-72
2022/10/15 04:00:56;;;;;;;;;1.00;1.00;;;;;13.16;80.73;100101.19;5077789;28;45299;-72
2022/10/15 04:03:22;;;;;;;;;2.00;2.00;;;;;13.21;80.82;100120.50;5077058;28;45307;-72
2022/10/15 04:05:51;;;;;;;;;1.00;1.00;;;;;13.17;81.00;100118.69;5060753;28;45490;-72
2022/10/15 04:08:17;;;;;;;;;1.00;1.00;;;;;13.18;80.66;100125.69;5057264;28;45497;-72
2022/10/15 04:10:43;;;;;;;;;1.00;1.00;;;;;13.12;80.49;100120.38;5057665;28;45393;-72
2022/10/15 04:13:08;;;;;;;;;2.00;2.00;;;;;13.13;80.49;100111.66;5090065;27;45510;-72
2022/10/15 04:15:34;;;;;;;;;1.33;1.00;;;;;13.20;80.49;100129.22;5072408;27;45397;-72
2022/10/15 04:17:59;;;;;;;;;1.00;1.00;;;;;13.16;80.31;100123.91;5067689;28;45595;-72
2022/10/15 04:20:25;;;;;;;;;3.00;2.00;;;;;13.10;80.32;100117.72;5077390;28;45416;-72
2022/10/15 04:22:50;;;;;;;;;2.33;1.33;;;;;13.19;80.81;100124.84;5066678;28;45490;-72
2022/10/15 04:25:16;;;;;;;;;3.00;2.00;;;;;13.16;80.71;100116.91;5056179;28;45492;-72
2022/10/15 04:27:42;;;;;;;;;1.67;1.67;;;;;13.20;80.83;100123.09;5057178;28;47085;-72
2022/10/15 04:30:08;;;;;;;;;2.00;2.00;;;;;13.21;81.37;100122.22;5077568;28;45476;-72
2022/10/15 04:32:33;;;;;;;;;2.00;2.00;;;;;13.13;82.01;100111.66;5093258;27;45432;-72
2022/10/15 04:34:59;;;;;;;;;2.67;2.00;;;;;13.25;82.66;100138.03;5080373;27;45513;-72
2022/10/15 04:37:24;;;;;;;;;3.00;3.00;;;;;13.27;83.16;100135.41;5089658;27;46852;-72
2022/10/15 04:39:50;;;;;;;;;4.00;3.00;;;;;13.26;81.42;100134.53;5056840;28;45378;-72
2022/10/15 04:42:15;;;;;;;;;2.00;1.33;;;;;12.99;80.58;100126.31;5056800;28;45230;-72
2022/10/15 04:44:41;;;;;;;;;2.00;1.00;;;;;12.94;80.18;100123.63;5057283;28;45200;-72
2022/10/15 04:47:06;;;;;;;;;1.00;1.00;;;;;12.87;80.63;100130.53;5069904;28;45862;-72
2022/10/15 04:49:32;;;;;;;;;2.00;1.00;;;;;12.74;80.85;100105.88;5094382;27;45293;-72
2022/10/15 04:51:57;;;;;;;;;2.00;2.00;;;;;12.82;80.83;100121.72;5075660;28;45442;-72
2022/10/15 04:54:23;;;;;;;;;2.00;2.00;;;;;12.83;81.07;100126.13;5060555;28;45480;-72
2022/10/15 04:56:48;;;;;;;;;0.00;0.00;;;;;12.65;81.51;100104.88;5060209;28;45488;-72
2022/10/15 04:59:14;;;;;;;;;2.00;1.00;;;;;12.80;81.85;100128.69;5075660;28;45547;-72
2022/10/15 05:01:39;;;;;;;;;2.00;1.33;;;;;12.78;82.24;100124.28;5067060;27;45379;-72
2022/10/15 05:04:05;;;;;;;;;2.00;1.00;;;;;12.81;81.83;100130.47;5062372;28;45480;-72
2022/10/15 05:06:32;;;;;;;;;1.00;1.00;;;;;12.88;81.63;100132.28;5075728;28;46806;-72
2022/10/15 05:08:57;;;;;;;;;0.67;0.67;;;;;12.76;81.67;100110.28;5060627;28;45409;-72
2022/10/15 05:11:25;;;;;;;;;2.67;2.00;;;;;12.90;82.20;100135.81;5059631;28;45520;-72
2022/10/15 05:13:53;;;;;;;;;1.33;1.33;;;;;12.82;82.26;100111.22;5060413;28;45222;-72
2022/10/15 05:16:27;;;;;;;;;4.00;4.00;;;;;12.90;81.67;100127.06;5061702;28;46123;-72
2022/10/15 05:18:59;;;;;;;;;1.67;1.67;;;;;12.73;81.56;100105.84;5076385;28;45428;-73
2022/10/15 05:21:26;;;;;;;;;2.00;2.00;;;;;12.84;81.48;100127.88;5079772;27;45361;-72
2022/10/15 05:23:51;;;;;;;;;4.00;1.00;;;;;12.70;81.77;100105.81;5069775;27;45341;-72
2022/10/15 05:26:20;;;;;;;;;1.00;1.00;;;;;12.81;82.23;100122.59;5075361;28;47717;-72
2022/10/15 05:28:45;;;;;;;;;2.00;2.00;;;;;12.85;81.81;100127.03;5059929;28;45589;-72
2022/10/15 05:31:21;;;;;;;;;58.00;46.75;;;;;12.87;81.65;100140.13;5059256;28;45663;-72
2022/10/15 05:33:48;;;;;;;;;5.67;4.00;;;;;12.72;81.21;100125.94;5060009;28;45428;-72
2022/10/15 05:36:25;;;;;;;;;6.00;2.67;;;;;12.61;82.15;100119.66;5059190;28;46452;-72
2022/10/15 05:38:53;;;;;;;;;3.00;2.00;;;;;12.54;81.77;100117.81;5058980;28;45476;-72
2022/10/15 05:41:19;;;;;;;;;1.33;1.33;;;;;12.53;82.32;100119.56;5061769;28;45469;-72
2022/10/15 05:43:53;;;;;;;;;1.00;1.00;;;;;12.54;82.87;100138.78;5069247;28;45480;-72
2022/10/15 05:46:19;;;;;;;;;2.00;2.00;;;;;12.59;82.38;100142.34;5063299;28;45698;-72
2022/10/15 05:48:49;;;;;;;;;1.67;1.00;;;;;12.57;82.75;100135.31;5059362;28;45481;-72
2022/10/15 05:51:15;;;;;;;;;2.00;2.00;;;;;12.58;82.37;100135.34;5059122;28;45484;-72
2022/10/15 05:53:42;;;;;;;;;2.00;2.00;;;;;12.52;81.93;100132.63;5074690;28;45333;-72
2022/10/15 05:56:09;;;;;;;;;1.33;1.33;;;;;12.60;81.83;100145.88;5060329;28;45488;-72
2022/10/15 05:58:36;;;;;;;;;2.33;2.00;;;;;12.52;82.01;100137.88;5069010;28;45468;-72
2022/10/15 06:01:04;;;;;;;;;1.33;1.33;;;;;12.52;81.69;100146.63;5076904;28;45557;-72
2022/10/15 06:03:30;;;;;;;;;2.00;2.00;;;;;12.58;81.69;100158.06;5059637;28;45218;-72
2022/10/15 06:05:55;;;;;;;;;1.67;1.67;;;;;12.64;81.83;100168.63;5058278;28;46017;-72
2022/10/15 06:08:22;;;;;;;;;2.00;2.00;;;;;12.65;81.88;100176.53;5059110;28;45374;-72
2022/10/15 06:10:48;;;;;;;;;3.00;2.00;;;;;12.64;81.30;100179.13;5064399;28;45772;-73
2022/10/15 06:13:16;;;;;;;;;1.00;1.00;;;;;12.64;82.01;100180.00;5067762;27;45508;-72
2022/10/15 06:15:43;;;;;;;;;1.67;1.00;;;;;12.54;81.92;100163.25;5065043;28;45607;-72
2022/10/15 06:18:11;;;;;;;;;1.00;1.00;;;;;12.64;82.16;100171.25;5066618;28;45398;-72
2022/10/15 06:20:37;;;;;;;;;1.00;1.00;;;;;12.54;82.91;100152.75;5057515;28;45431;-72
2022/10/15 06:23:04;;;;;;;;;3.00;2.00;;;;;12.66;83.51;100169.53;5074593;28;45596;-88
2022/10/15 06:25:31;;;;;;;;;2.00;2.00;;;;;12.62;83.60;100157.25;5079161;28;46079;-73
2022/10/15 06:28:02;;;;;;;;;2.00;2.00;;;;;12.58;83.17;100155.44;5079178;27;45370;-72
2022/10/15 06:30:28;;;;;;;;;2.67;2.00;;;;;12.68;83.15;100173.94;5073775;28;45466;-73
2022/10/15 06:32:53;;;;;;;;;3.00;3.00;;;;;12.72;82.99;100174.88;5058448;28;45368;-72
2022/10/15 06:35:21;;;;;;;;;11.25;11.25;;;;;12.79;82.39;100194.19;5058602;28;46050;-72
2022/10/15 06:37:47;;;;;;;;;17.75;17.25;;;;;12.67;81.81;100189.63;5061687;28;45519;-87
2022/10/15 06:40:13;;;;;;;;;7.67;7.67;;;;;12.56;82.14;100165.88;5079481;28;45438;-72
2022/10/15 06:42:39;;;;;;;;;9.33;8.00;;;;;12.79;82.43;100194.19;5075356;28;45608;-72
2022/10/15 06:45:09;;;;;;;;;2.67;2.67;;;;;12.71;82.54;100176.63;5058220;28;45479;-89
2022/10/15 06:47:36;;;;;;;;;3.33;3.33;;;;;12.92;82.88;100196.13;5069563;28;45467;-86
2022/10/15 06:50:04;;;;;;;;;2.33;2.33;;;;;12.88;83.07;100176.84;5062964;27;45886;-72
2022/10/15 06:52:29;;;;;;;;;3.00;3.00;;;;;13.00;82.84;100193.63;5072930;28;45425;-72
2022/10/15 06:54:55;;;;;;;;;5.00;5.00;;;;;13.01;82.39;100182.25;5057627;28;45570;-82
2022/10/15 06:57:20;;;;;;;;;7.00;6.33;;;;;13.05;82.37;100184.97;5057763;27;45561;-71
2022/10/15 06:59:46;;;;;;;;;9.00;8.33;;;;;13.13;81.71;100187.72;5058120;27;45326;-72
2022/10/15 07:02:13;;;;;;;;;4.00;4.00;;;;;13.22;81.29;100200.94;5075741;27;45482;-72
2022/10/15 07:04:39;;;;;;;;;8.33;7.33;;;;;13.20;81.31;100189.53;5070029;27;46263;-72
2022/10/15 07:07:04;;;;;;;;;14.00;12.50;;;;;13.24;80.85;100195.72;5057575;28;45536;-72
2022/10/15 07:09:30;;;;;;;;;18.75;18.00;;;;;12.79;79.20;100129.53;5062188;28;45311;-72
2022/10/15 07:11:55;;;;;;;;;15.50;15.50;;;;;13.12;78.62;100201.66;5071390;28;45575;-72
2022/10/15 07:14:21;;;;;;;;;15.75;14.75;;;;;13.03;78.96;100191.03;5067818;28;45628;-72
2022/10/15 07:16:46;;;;;;;;;14.25;12.50;;;;;13.08;79.05;100203.34;5092109;27;45551;-72
2022/10/15 07:19:12;;;;;;;;;7.33;6.00;;;;;12.98;78.84;100184.88;5072482;28;45443;-72
2022/10/15 07:21:37;;;;;;;;;5.00;5.00;;;;;13.16;78.99;100197.34;5074432;28;45488;-72
2022/10/15 07:24:03;;;;;;;;;9.00;8.00;;;;;13.29;78.75;100192.31;5073829;27;45626;-72
2022/10/15 07:26:29;;;;;;;;;9.33;9.00;;;;;13.40;78.90;100200.31;5075467;27;45451;-72
2022/10/15 07:28:56;;;;;;;;;12.33;9.00;;;;;13.61;79.04;100209.31;5076345;28;45667;-73
2022/10/15 07:31:22;;;;;;;;;8.67;8.33;;;;;13.66;79.21;100198.00;5071165;28;45475;-73
2022/10/15 07:33:48;;;;;;;;;7.33;6.33;;;;;13.85;78.82;100216.63;5074760;28;45353;-87
2022/10/15 07:36:13;;;;;;;;;7.00;6.00;;;;;13.87;78.87;100193.91;5074216;28;45448;-82
2022/10/15 07:38:39;;;;;;;;;7.00;6.00;;;;;14.08;78.53;100207.22;5073289;28;45622;-72
2022/10/15 07:41:06;;;;;;;;;7.67;7.67;;;;;16.66;73.35;100206.81;5074512;27;45556;-72
2022/10/15 07:43:33;;;;;;;;;7.33;7.33;;;;;19.92;62.33;100182.59;5071028;28;47225;-72
2022/10/15 07:45:59;;;;;;;;;7.67;7.67;;;;;22.27;55.35;100179.97;5074524;28;45445;-73
2022/10/15 07:48:25;;;;;;;;;9.67;9.33;;;;;24.00;51.40;100185.91;5075493;28;45444;-82
2022/10/15 07:50:55;;;;;;;;;8.00;8.00;;;;;25.50;45.78;100173.69;5075633;28;45522;-73
2022/10/15 07:53:21;;;;;;;;;4.33;4.33;;;;;26.60;44.63;100181.00;5071477;28;46711;-73
2022/10/15 07:55:47;;;;;;;;;4.00;4.00;;;;;27.49;42.82;100171.72;5066901;28;45668;-73
2022/10/15 07:58:13;;;;;;;;;5.00;5.00;;;;;28.32;39.50;100173.16;5101199;27;45470;-76
2022/10/15 08:00:38;;;;;;;;;6.00;6.00;;;;;28.98;38.88;100163.56;5067487;27;45691;-72
2022/10/15 08:03:04;;;;;;;;;5.00;5.00;;;;;29.57;38.73;100168.53;5079324;27;47441;-72
2022/10/15 08:05:30;;;;;;;;;5.00;5.00;;;;;30.14;37.26;100179.69;5074151;28;45524;-71
2022/10/15 08:07:56;;;;;;;;;5.00;4.67;;;;;30.57;36.07;100161.06;5071300;28;45966;-69
2022/10/15 08:10:21;;;;;;;;;4.00;4.00;;;;;31.13;34.82;100159.47;5072107;28;45475;-71
2022/10/15 08:12:47;;;;;;;;;3.00;3.00;;;;;31.36;34.27;100154.47;5068544;28;46368;-72
2022/10/15 08:15:12;;;;;;;;;4.00;3.67;;;;;31.63;33.91;100157.25;5064665;28;45472;-72
2022/10/15 08:17:38;;;;;;;;;2.00;2.00;;;;;32.02;34.15;100136.78;5062796;28;45507;-71
2022/10/15 08:20:04;;;;;;;;;4.33;4.33;;;;;32.50;32.90;100142.53;5066627;28;45581;-71
2022/10/15 08:22:30;;;;;;;;;10.00;9.67;;;;;32.93;33.11;100132.47;5064350;28;47052;-73
2022/10/15 08:24:55;;;;;;;;;7.33;7.00;;;;;33.61;32.16;100150.22;5066697;28;45466;-70
2022/10/15 08:27:21;;;;;;;;;4.67;4.00;;;;;33.87;31.79;100141.06;5065769;27;45763;-70
2022/10/15 08:29:46;;;;;;;;;5.67;5.00;;;;;34.14;31.91;100145.47;5077240;27;45599;-72
2022/10/15 08:32:12;;;;;;;;;5.33;4.33;;;;;34.43;31.18;100139.66;5066979;27;46079;-71
2022/10/15 08:34:38;;;;;;;;;3.00;3.00;;;;;34.77;30.66;100139.78;5099453;27;45465;-72
2022/10/15 08:37:04;;;;;;;;;4.33;3.00;;;;;34.96;30.87;100148.22;5062087;28;45640;-71
2022/10/15 08:39:30;;;;;;;;;2.33;2.33;;;;;35.04;30.94;100132.19;5081226;27;45590;-70
2022/10/15 08:42:11;;;;;;;;;2.00;2.00;;;;;35.35;31.50;100143.34;5065385;27;45511;-72
2022/10/15 08:44:39;;;;;;;;;7.67;7.00;;;;;35.49;30.72;100153.09;5059946;27;45494;-71
2022/10/15 08:47:12;;;;;;;;;1.00;1.00;;;;;35.60;30.54;100123.22;5070426;28;45272;-71
2022/10/15 08:49:48;;;;;;;;;2.00;2.00;;;;;35.52;30.48;100135.72;5063596;28;45632;-71
2022/10/15 08:52:25;;;;;;;;;3.00;2.33;;;;;35.15;31.81;100138.63;5065288;28;45746;-72
2022/10/15 08:54:54;;;;;;;;;1.67;0.67;;;;;34.76;31.51;100138.94;5066432;28;45390;-71
2022/10/15 08:57:34;;;;;;;;;3.00;3.00;;;;;34.00;33.26;100137.44;5064208;27;45560;-71
2022/10/15 09:00:11;;;;;;;;;1.67;1.67;;;;;33.40;33.85;100133.66;5071534;28;46753;-71
2022/10/15 09:03:13;;;;;;;;;2.67;2.67;;;;;32.91;34.83;100140.72;5053773;28;46433;-72
2022/10/15 09:05:48;;;;;;;;;1.67;1.67;;;;;32.60;35.89;100134.72;5060850;27;45504;-71
2022/10/15 09:09:07;;;;;;;;;2.00;1.67;;;;;32.17;36.50;100132.19;5064739;27;45703;-71
2022/10/15 09:11:45;;;;;;;;;1.00;1.00;;;;;31.97;36.38;100127.19;5044024;28;45327;-71
2022/10/15 09:14:17;;;;;;;;;1.00;1.00;;;;;31.71;37.41;100121.66;5064950;28;45543;-71
2022/10/15 09:16:47;;;;;;;;;1.33;1.33;;;;;31.33;36.66;100116.88;5060770;28;45591;-72
2022/10/15 09:19:18;;;;;;;;;0.00;0.00;;;;;30.82;38.39;100101.13;5065797;28;45517;-72
2022/10/15 09:21:45;;;;;;;;;0.67;0.67;;;;;30.86;37.90;100088.34;5073956;27;45765;-72
2022/10/15 09:24:17;;;;;;;;;1.00;1.00;;;;;30.88;38.22;100097.19;5059471;28;46089;-72
2022/10/15 09:26:54;;;;;;;;;1.00;1.00;;;;;31.02;37.37;100113.41;5067172;28;45439;-72
2022/10/15 09:29:21;;;;;;;;;0.67;0.67;;;;;31.24;38.93;100110.25;5060817;28;46319;-72
2022/10/15 09:32:12;;;;;;;;;2.00;2.00;;;;;31.52;38.25;100114.78;5072312;28;45594;-73
2022/10/15 09:35:17;;;;;;;;;1.67;1.67;;;;;31.68;37.52;100102.97;5064298;28;45411;-81
2022/10/15 09:38:05;;;;;;;;;2.67;2.67;;;;;31.67;36.83;100103.94;5066931;28;45424;-72
2022/10/15 09:40:54;;;;;;;;;3.00;2.33;;;;;31.53;38.19;100107.53;5061682;28;45448;-72
2022/10/15 09:43:29;;;;;;;;;1.67;1.67;;;;;31.45;37.77;100094.53;5072467;28;45459;-72
2022/10/15 09:45:56;;;;;;;;;2.00;2.00;;;;;31.56;37.77;100101.94;5066941;27;45601;-73
2022/10/15 09:48:24;;;;;;;;;2.00;2.00;;;;;31.55;38.19;100094.78;5061191;27;45417;-71
2022/10/15 09:51:05;;;;;;;;;2.00;1.67;;;;;31.59;38.35;100095.47;5062278;28;45540;-73
2022/10/15 09:53:51;;;;;;;;;1.33;1.33;;;;;31.44;37.79;100103.56;5058811;28;45315;-72
2022/10/15 09:56:25;;;;;;;;;2.00;2.00;;;;;31.34;38.44;100088.94;5074728;28;45502;-72
2022/10/15 09:58:55;;;;;;;;;0.67;0.67;;;;;31.30;38.34;100080.16;5070758;28;45323;-73
2022/10/15 10:01:24;;;;;;;;;1.67;1.33;;;;;31.54;38.53;100094.91;5065606;28;45533;-72
2022/10/15 10:03:53;;;;;;;;;4.67;4.67;;;;;31.51;39.12;100088.75;5067268;28;45538;-72
2022/10/15 10:06:23;;;;;;;;;3.33;3.00;;;;;31.27;39.27;100084.88;5067490;27;45519;-72
2022/10/15 10:08:54;;;;;;;;;2.67;2.67;;;;;31.14;39.28;100065.91;5088365;27;45764;-75
2022/10/15 10:11:23;;;;;;;;;3.67;3.00;;;;;31.19;39.08;100071.00;5066487;28;45377;-76
2022/10/15 10:13:50;;;;;;;;;2.00;2.00;;;;;31.23;39.77;100076.09;5078109;27;45520;-72
2022/10/15 10:16:18;;;;;;;;;1.00;1.00;;;;;31.10;39.98;100065.25;5063070;28;46848;-72
2022/10/15 10:19:20;;;;;;;;;1.67;1.67;;;;;31.25;40.27;100065.22;5071587;28;45549;-72
2022/10/15 10:21:45;;;;;;;;;1.67;1.67;;;;;31.30;39.98;100072.06;5069095;28;45362;-72
2022/10/15 10:24:30;;;;;;;;;4.00;3.00;;;;;31.33;40.21;100084.47;5065583;28;45402;-72
2022/10/15 10:27:01;;;;;;;;;4.00;3.33;;;;;31.21;39.60;100071.78;5062305;28;46282;-72
2022/10/15 10:29:28;;;;;;;;;6.00;5.00;;;;;31.05;37.73;100061.94;5071240;28;45564;-72
2022/10/15 10:31:54;;;;;;;;;8.67;8.67;;;;;30.84;39.41;100049.78;5085671;27;45618;-72
2022/10/15 10:34:30;;;;;;;;;9.00;8.67;;;;;30.85;39.52;100073.09;5073975;27;45446;-72
2022/10/15 10:36:56;;;;;;;;;10.00;8.67;;;;;30.61;40.63;100080.88;5066267;28;45689;-72
2022/10/15 10:39:35;;;;;;;;;7.33;7.00;;;;;30.38;40.70;100061.59;5076535;28;45279;-72
2022/10/15 10:42:04;;;;;;;;;7.00;6.00;;;;;30.38;40.88;100080.44;5067606;27;45483;-72
2022/10/15 10:44:41;;;;;;;;;5.33;5.33;;;;;30.16;42.07;100075.41;5063163;27;45468;-72
2022/10/15 10:47:14;;;;;;;;;6.00;5.67;;;;;29.82;42.68;100074.69;5070418;27;46249;-73
2022/10/15 10:49:53;;;;;;;;;5.00;4.33;;;;;29.33;43.68;100075.63;5065399;27;45675;-73
2022/10/15 10:52:19;;;;;;;;;4.00;4.00;;;;;29.00;44.08;100069.38;5062176;28;45495;-73
2022/10/15 10:54:45;;;;;;;;;3.00;3.00;;;;;28.79;45.22;100057.94;5058425;28;45582;-72
2022/10/15 10:57:16;;;;;;;;;2.33;2.33;;;;;28.44;46.21;100041.84;5062257;28;45660;-72
2022/10/15 10:59:50;;;;;;;;;3.00;3.00;;;;;28.11;45.42;100045.31;5066752;28;45499;-73
2022/10/15 11:02:15;;;;;;;;;3.00;2.00;;;;;27.93;45.70;100018.47;5073079;28;45363;-72
2022/10/15 11:04:41;;;;;;;;;2.00;2.00;;;;;28.04;45.88;100039.38;5062938;28;45559;-73
2022/10/15 11:07:40;;;;;;;;;2.67;2.67;;;;;28.01;45.55;100033.31;5064319;28;45492;-72
2022/10/15 11:10:28;;;;;;;;;2.33;2.33;;;;;27.92;44.24;100030.13;5063146;28;45538;-73
2022/10/15 11:13:00;;;;;;;;;2.67;2.00;;;;;27.98;44.93;100033.47;5079399;27;45542;-72
2022/10/15 11:15:48;;;;;;;;;2.00;2.00;;;;;28.04;43.81;100022.41;5060555;28;45470;-72
2022/10/15 11:18:38;;;;;;;;;1.33;1.33;;;;;27.98;42.69;100022.75;5066417;28;46411;-73
2022/10/15 11:21:16;;;;;;;;;3.00;3.00;;;;;28.05;43.81;100029.50;5064232;28;45453;-73
2022/10/15 11:23:55;;;;;;;;;2.00;2.00;;;;;27.97;43.75;100011.09;5059860;28;45430;-73
2022/10/15 11:26:47;;;;;;;;;2.00;2.00;;;;;28.14;44.39;100013.81;5058042;28;45387;-73
2022/10/15 11:29:30;;;;;;;;;2.00;2.00;;;;;28.12;45.37;100021.06;5056780;28;46427;-72
2022/10/15 11:32:12;;;;;;;;;1.00;1.00;;;;;28.08;44.22;100005.22;5066165;28;45444;-77
2022/10/15 11:34:40;;;;;;;;;2.00;2.00;;;;;27.95;45.08;100013.88;5077893;27;45214;-73
2022/10/15 11:37:24;;;;;;;;;2.00;2.00;;;;;27.55;46.55;100012.28;5076387;28;45493;-72